createdAt,value
2022-10-12T04:16:40.410Z,1.55
2022-10-12T04:19:06.848Z,1.64
2022-10-12T04:21:33.316Z,1.66
2022-10-12T04:24:00.809Z,1.68
2022-10-12T04:26:27.258Z,1.71
2022-10-12T04:28:54.171Z,1.70
2022-10-12T04:31:20.828Z,1.55
2022-10-12T04:33:53.111Z,1.63
2022-10-12T04:36:19.610Z,1.65
2022-10-12T04:38:49.402Z,1.59
2022-10-12T04:41:16.105Z,1.60
2022-10-12T04:43:50.626Z,1.60
2022-10-12T04:46:17.131Z,1.65
2022-10-12T04:48:49.053Z,1.66
2022-10-12T04:52:19.391Z,1.69
2022-10-12T04:54:45.977Z,1.67
2022-10-12T04:57:12.491Z,1.60
2022-10-12T04:59:39.260Z,1.60
2022-10-12T05:02:06.309Z,1.54
2022-10-12T05:04:32.895Z,1.57
2022-10-12T05:07:25.021Z,1.52
2022-10-12T05:09:51.446Z,1.55
2022-10-12T05:12:17.882Z,1.58
2022-10-12T05:14:44.470Z,1.57
2022-10-12T05:17:11.501Z,1.57
2022-10-12T05:19:38.072Z,1.47
2022-10-12T05:22:04.507Z,1.36
2022-10-12T05:24:31.107Z,1.29
2022-10-12T05:26:57.545Z,1.33
2022-10-12T05:29:23.988Z,1.37
2022-10-12T05:31:50.661Z,1.25
2022-10-12T05:34:17.093Z,1.21
2022-10-12T05:36:43.522Z,1.20
2022-10-12T05:39:09.995Z,1.21
2022-10-12T05:41:36.525Z,1.26
2022-10-12T05:44:02.998Z,1.28
2022-10-12T05:46:29.422Z,1.21
2022-10-12T05:48:55.896Z,1.19
2022-10-12T05:51:26.536Z,1.22
2022-10-12T05:53:55.113Z,1.20
2022-10-12T05:56:21.540Z,1.21
2022-10-12T05:58:48.091Z,1.22
2022-10-12T06:01:14.657Z,1.30
2022-10-12T06:03:41.135Z,1.33
2022-10-12T06:06:15.637Z,1.34
2022-10-12T06:08:42.111Z,1.33
2022-10-12T06:17:57.995Z,1.42
2022-10-12T06:21:08.676Z,1.42
2022-10-12T06:24:22.478Z,1.41
2022-10-12T06:26:49.577Z,1.40
2022-10-12T06:29:16.133Z,1.43
2022-10-12T06:32:13.487Z,1.54
2022-10-12T06:34:40.012Z,1.59
2022-10-12T06:37:49.149Z,1.58
2022-10-12T06:40:17.397Z,1.65
2022-10-12T06:42:43.911Z,1.71
2022-10-12T06:45:11.892Z,1.74
2022-10-12T06:47:38.559Z,1.83
2022-10-12T06:50:21.590Z,1.86
2022-10-12T06:52:48.092Z,1.88
2022-10-12T06:55:14.629Z,1.93
2022-10-12T06:57:41.185Z,2.01
2022-10-12T07:00:08.784Z,2.10
2022-10-12T07:02:36.015Z,2.22
2022-10-12T07:05:03.407Z,2.33
2022-10-12T07:07:34.372Z,2.38
2022-10-12T07:10:01.218Z,2.51
2022-10-12T07:12:27.877Z,2.61
2022-10-12T07:14:58.371Z,2.59
2022-10-12T07:17:24.818Z,2.78
2022-10-12T07:19:56.947Z,2.82
2022-10-12T07:22:23.514Z,2.94
2022-10-12T07:24:56.659Z,3.04
2022-10-12T07:27:23.664Z,3.10
2022-10-12T07:29:50.911Z,3.20
2022-10-12T07:32:17.440Z,3.28
2022-10-12T07:34:46.103Z,3.21
2022-10-12T07:37:13.272Z,3.31
2022-10-12T07:39:41.424Z,3.39
2022-10-12T07:46:32.344Z,3.57
2022-10-12T07:49:04.944Z,3.64
2022-10-12T07:51:31.407Z,3.64
2022-10-12T07:54:00.156Z,3.72
2022-10-12T07:56:27.053Z,3.80
2022-10-12T07:58:56.222Z,3.84
2022-10-12T08:01:24.953Z,3.95
2022-10-12T08:03:56.323Z,3.91
2022-10-12T08:06:27.521Z,4.07
2022-10-12T08:08:54.267Z,4.10
2022-10-12T08:11:21.941Z,4.26
2022-10-12T08:13:48.873Z,4.35
2022-10-12T08:16:18.825Z,4.45
2022-10-12T08:18:45.489Z,4.47
2022-10-12T08:21:37.694Z,4.62
2022-10-12T08:24:04.300Z,4.65
2022-10-12T08:26:30.914Z,4.79
2022-10-12T08:28:57.530Z,4.86
2022-10-12T08:31:24.033Z,4.91
2022-10-12T08:33:53.803Z,5.07
2022-10-12T08:36:20.402Z,5.22
2022-10-12T08:38:53.849Z,5.36
2022-10-12T08:41:28.877Z,5.29
2022-10-12T08:44:20.833Z,5.41
2022-10-12T08:47:21.167Z,5.64
2022-10-12T08:49:50.550Z,5.80
2022-10-12T08:52:31.932Z,5.89
2022-10-12T08:55:07.156Z,6.01
2022-10-12T08:57:36.488Z,6.07
2022-10-12T09:00:04.247Z,6.11
2022-10-12T09:03:00.428Z,6.16
2022-10-12T09:05:26.803Z,6.24
2022-10-12T09:08:00.344Z,6.35
2022-10-12T09:10:37.998Z,6.47
2022-10-12T09:17:04.757Z,6.92
2022-10-12T09:19:36.882Z,7.06
2022-10-12T09:22:05.998Z,7.15
2022-10-12T09:24:36.781Z,7.13
2022-10-12T09:27:15.226Z,7.28
2022-10-12T09:29:46.564Z,7.35
2022-10-12T09:32:50.667Z,7.47
2022-10-12T09:35:17.578Z,7.71
2022-10-12T09:37:52.471Z,7.75
2022-10-12T09:40:33.085Z,7.99
2022-10-12T09:43:02.447Z,8.11
2022-10-12T09:45:32.912Z,8.23
2022-10-12T09:48:19.041Z,8.31
2022-10-12T09:51:00.330Z,8.26
2022-10-12T09:53:32.984Z,8.59
2022-10-12T09:56:09.707Z,8.92
2022-10-12T09:58:58.622Z,9.17
2022-10-12T10:01:29.992Z,9.43
2022-10-12T10:04:23.138Z,9.53
2022-10-12T10:06:50.727Z,9.49
2022-10-12T10:09:32.792Z,9.82
2022-10-12T10:12:13.657Z,9.92
2022-10-12T10:14:44.006Z,9.92
2022-10-12T10:17:20.364Z,10.32
2022-10-12T10:19:54.870Z,10.41
2022-10-12T10:22:23.588Z,10.66
2022-10-12T10:25:01.153Z,10.75
2022-10-12T10:27:39.829Z,10.59
2022-10-12T10:30:29.485Z,10.49
2022-10-12T10:33:14.606Z,10.74
2022-10-12T10:35:41.778Z,11.07
2022-10-12T10:38:15.733Z,11.51
2022-10-12T10:40:42.071Z,11.86
2022-10-12T10:43:21.497Z,12.06
2022-10-12T10:45:53.159Z,12.49
2022-10-12T10:48:26.827Z,12.62
2022-10-12T10:51:00.904Z,12.95
2022-10-12T10:53:32.907Z,13.08
2022-10-12T10:56:14.247Z,13.07
2022-10-12T10:58:50.091Z,12.91
2022-10-12T11:01:22.872Z,13.21
2022-10-12T11:03:56.478Z,13.28
2022-10-12T11:06:42.545Z,13.46
2022-10-12T11:09:20.376Z,13.59
2022-10-12T11:11:58.483Z,13.76
2022-10-12T11:14:45.813Z,13.87
2022-10-12T11:17:32.975Z,14.32
2022-10-12T11:20:25.233Z,14.46
2022-10-12T11:23:01.629Z,14.76
2022-10-12T11:25:39.886Z,14.94
2022-10-12T11:28:08.050Z,14.99
2022-10-12T11:30:47.321Z,15.10
2022-10-12T11:33:26.235Z,14.63
2022-10-12T11:35:54.741Z,15.53
2022-10-12T11:38:32.751Z,16.88
2022-10-12T11:41:34.356Z,17.66
2022-10-12T11:44:05.958Z,18.66
2022-10-12T11:46:40.107Z,19.30
2022-10-12T11:49:32.426Z,20.04
2022-10-12T11:52:05.700Z,20.71
2022-10-12T11:54:35.075Z,21.60
2022-10-12T11:57:26.525Z,21.70
2022-10-12T11:59:59.712Z,21.61
2022-10-12T12:02:41.190Z,22.32
2022-10-12T12:05:16.748Z,23.25
2022-10-12T12:07:54.521Z,22.42
2022-10-12T12:10:37.051Z,23.61
2022-10-12T12:13:13.057Z,21.85
2022-10-12T12:15:41.379Z,22.63
2022-10-12T12:18:13.028Z,23.59
2022-10-12T12:20:42.730Z,25.11
2022-10-12T12:23:32.987Z,26.37
2022-10-12T12:26:20.145Z,26.25
2022-10-12T12:28:48.607Z,27.22
2022-10-12T12:31:24.100Z,26.60
2022-10-12T12:34:06.889Z,24.51
2022-10-12T12:36:33.205Z,25.58
2022-10-12T12:39:01.559Z,26.27
2022-10-12T12:41:55.179Z,27.17
2022-10-12T12:44:33.601Z,28.32
2022-10-12T12:46:59.954Z,28.47
2022-10-12T12:49:45.463Z,28.58
2022-10-12T12:52:24.840Z,29.27
2022-10-12T12:54:57.400Z,29.73
2022-10-12T12:57:35.227Z,29.79
2022-10-12T13:00:06.503Z,28.71
2022-10-12T13:03:02.699Z,27.75
2022-10-12T13:06:06.412Z,26.66
2022-10-12T13:09:02.386Z,26.42
2022-10-12T13:11:40.316Z,26.39
2022-10-12T13:14:13.670Z,26.20
2022-10-12T13:19:44.353Z,26.07
2022-10-12T13:22:26.152Z,26.21
2022-10-12T13:24:59.634Z,27.26
2022-10-12T13:28:35.501Z,27.11
2022-10-12T13:31:16.512Z,24.73
2022-10-12T13:33:55.657Z,23.75
2022-10-12T13:36:28.436Z,22.33
2022-10-12T13:38:59.817Z,21.79
2022-10-12T13:41:37.136Z,21.10
2022-10-12T13:44:07.246Z,19.76
2022-10-12T13:47:01.192Z,20.82
2022-10-12T13:49:29.416Z,18.59
2022-10-12T13:52:00.419Z,18.54
2022-10-12T13:54:39.716Z,18.32
2022-10-12T13:57:31.756Z,16.75
2022-10-12T14:00:02.879Z,15.83
2022-10-12T14:02:31.856Z,15.96
2022-10-12T14:05:02.898Z,15.35
2022-10-12T14:07:37.480Z,15.60
2022-10-12T14:10:31.308Z,15.04
2022-10-12T14:12:58.516Z,15.45
2022-10-12T14:15:27.739Z,14.99
2022-10-12T14:17:54.874Z,14.44
2022-10-12T14:20:38.512Z,14.44
2022-10-12T14:23:18.683Z,14.48
2022-10-12T14:25:55.742Z,14.44
2022-10-12T14:28:37.654Z,14.30
2022-10-12T14:31:04.242Z,14.82
2022-10-12T14:33:32.577Z,14.97
2022-10-12T14:36:20.845Z,15.00
2022-10-12T14:39:13.478Z,14.78
2022-10-12T14:41:52.440Z,14.82
2022-10-12T14:44:21.935Z,14.88
2022-10-12T14:47:01.435Z,15.00
2022-10-12T14:49:46.552Z,14.52
2022-10-12T14:52:23.412Z,14.30
2022-10-12T14:54:58.348Z,14.07
2022-10-12T14:57:28.020Z,14.35
2022-10-12T14:59:59.834Z,13.60
2022-10-12T15:02:31.793Z,13.54
2022-10-12T15:04:59.432Z,13.88
2022-10-12T15:07:32.727Z,13.77
2022-10-12T15:10:08.360Z,14.11
2022-10-12T15:12:35.208Z,14.24
2022-10-12T15:15:14.963Z,13.64
2022-10-12T15:17:41.538Z,13.56
2022-10-12T15:20:09.382Z,13.69
2022-10-12T15:22:35.841Z,13.80
2022-10-12T15:25:02.343Z,13.56
2022-10-12T15:27:37.897Z,13.61
2022-10-12T15:30:04.825Z,13.37
2022-10-12T15:32:33.553Z,13.47
2022-10-12T15:35:00.248Z,13.25
2022-10-12T15:37:31.689Z,13.50
2022-10-12T15:39:58.428Z,13.85
2022-10-12T15:42:25.261Z,13.94
2022-10-12T15:45:01.550Z,13.77
2022-10-12T15:47:35.513Z,13.64
2022-10-12T15:50:02.064Z,13.61
2022-10-12T15:52:28.526Z,13.52
2022-10-12T15:54:55.923Z,13.43
2022-10-12T15:57:25.578Z,12.85
2022-10-12T15:59:53.344Z,12.81
2022-10-12T16:02:27.185Z,12.97
2022-10-12T16:04:53.572Z,12.94
2022-10-12T16:07:20.065Z,12.75
2022-10-12T16:09:46.514Z,12.66
2022-10-12T16:12:13.034Z,12.66
2022-10-12T16:14:39.736Z,12.71
2022-10-12T16:17:06.211Z,12.80
2022-10-12T16:19:36.490Z,12.96
2022-10-12T16:22:04.784Z,12.87
2022-10-12T16:25:02.047Z,12.71
2022-10-12T16:27:29.421Z,12.52
2022-10-12T16:29:55.980Z,12.57
2022-10-12T16:32:22.401Z,12.69
2022-10-12T16:34:48.816Z,12.64
2022-10-12T16:37:15.639Z,12.40
2022-10-12T16:39:42.280Z,12.42
2022-10-12T16:42:08.762Z,12.32
2022-10-12T16:44:35.264Z,12.29
2022-10-12T16:47:08.077Z,12.38
2022-10-12T16:49:37.670Z,12.40
2022-10-12T16:52:09.973Z,12.38
2022-10-12T16:54:53.422Z,12.33
2022-10-12T16:57:30.803Z,12.40
2022-10-12T17:00:15.415Z,12.42
2022-10-12T17:03:03.855Z,12.25
2022-10-12T17:05:30.733Z,12.20
2022-10-12T17:07:59.047Z,12.07
2022-10-12T17:10:45.437Z,12.07
2022-10-12T17:13:36.069Z,11.99
2022-10-12T17:16:29.159Z,11.78
2022-10-12T17:19:11.637Z,11.69
2022-10-12T17:21:43.990Z,11.50
2022-10-12T17:24:16.741Z,11.55
2022-10-12T17:26:46.630Z,11.41
2022-10-12T17:29:31.648Z,11.48
2022-10-12T17:32:09.436Z,11.54
2022-10-12T17:34:48.055Z,11.55
2022-10-12T17:37:21.000Z,11.47
2022-10-12T17:39:58.207Z,11.36
2022-10-12T17:42:38.571Z,11.34
2022-10-12T17:45:22.942Z,11.30
2022-10-12T17:47:56.822Z,11.17
2022-10-12T17:50:33.200Z,10.99
2022-10-12T17:53:12.216Z,10.81
2022-10-12T17:55:58.832Z,10.74
2022-10-12T17:58:25.726Z,10.67
2022-10-12T18:00:52.316Z,10.57
2022-10-12T18:03:40.319Z,10.47
2022-10-12T18:06:19.813Z,10.38
2022-10-12T18:09:13.974Z,10.34
2022-10-12T18:11:46.390Z,10.29
2022-10-12T18:14:25.876Z,10.24
2022-10-12T18:17:24.470Z,10.08
2022-10-12T18:20:00.095Z,9.97
2022-10-12T18:26:32.938Z,9.77
2022-10-12T18:29:28.850Z,9.78
2022-10-12T18:32:03.211Z,9.70
2022-10-12T18:34:39.417Z,9.67
2022-10-12T18:37:18.003Z,9.47
2022-10-12T18:39:58.320Z,9.44
2022-10-12T18:42:43.580Z,9.32
2022-10-12T18:45:14.722Z,9.43
2022-10-12T18:47:49.311Z,9.24
2022-10-12T18:50:16.385Z,9.25
2022-10-12T18:52:46.309Z,9.22
2022-10-12T18:55:12.980Z,9.16
2022-10-12T18:57:46.155Z,9.14
2022-10-12T19:00:13.004Z,9.12
2022-10-12T19:02:39.662Z,9.12
2022-10-12T19:05:15.628Z,9.05
2022-10-12T19:07:45.193Z,9.09
2022-10-12T19:10:11.817Z,8.95
2022-10-12T19:12:42.159Z,8.83
2022-10-12T19:15:17.142Z,8.80
2022-10-12T19:18:01.075Z,8.79
2022-10-12T19:20:27.889Z,8.63
2022-10-12T19:22:54.386Z,8.63
2022-10-12T19:25:21.683Z,8.57
2022-10-12T19:27:48.121Z,8.61
2022-10-12T19:30:14.594Z,8.49
2022-10-12T19:32:42.824Z,8.44
2022-10-12T19:39:09.825Z,8.30
2022-10-12T19:41:36.373Z,8.27
2022-10-12T19:44:03.635Z,8.42
2022-10-12T19:46:30.371Z,8.48
2022-10-12T19:48:58.532Z,8.48
2022-10-12T19:51:27.165Z,8.42
2022-10-12T19:53:57.693Z,8.45
2022-10-12T19:56:24.450Z,8.43
2022-10-12T19:58:52.530Z,8.29
2022-10-12T20:01:22.409Z,8.27
2022-10-12T20:03:50.539Z,8.03
2022-10-12T20:06:18.682Z,8.05
2022-10-12T20:08:46.193Z,8.17
2022-10-12T20:11:18.933Z,8.16
2022-10-12T20:13:48.266Z,8.17
2022-10-12T20:16:17.503Z,8.26
2022-10-12T20:18:44.678Z,8.17
2022-10-12T20:21:13.643Z,8.15
2022-10-12T20:23:41.879Z,8.17
2022-10-12T20:26:12.087Z,8.26
2022-10-12T20:28:38.682Z,8.24
2022-10-12T20:31:06.746Z,8.24
2022-10-12T20:33:35.224Z,8.09
2022-10-12T20:36:02.061Z,8.23
2022-10-12T20:38:28.505Z,8.25
2022-10-12T20:41:07.174Z,8.25
2022-10-12T20:43:33.741Z,8.26
2022-10-12T20:46:05.212Z,8.21
2022-10-12T20:48:33.424Z,8.16
2022-10-12T20:51:00.464Z,8.11
2022-10-12T20:53:26.939Z,8.06
2022-10-12T20:55:53.783Z,8.06
2022-10-12T20:58:23.245Z,7.90
2022-10-12T21:01:14.546Z,7.89
2022-10-12T21:03:42.092Z,7.75
2022-10-12T21:06:11.079Z,7.79
2022-10-12T21:08:37.953Z,7.76
2022-10-12T21:11:05.103Z,7.94
2022-10-12T21:13:33.894Z,7.88
2022-10-12T21:16:00.430Z,7.75
2022-10-12T21:18:27.239Z,7.79
2022-10-12T21:20:58.631Z,7.95
2022-10-12T21:23:26.227Z,8.00
2022-10-12T21:25:53.441Z,8.00
2022-10-12T21:28:20.927Z,8.00
2022-10-12T21:30:48.098Z,8.00
2022-10-12T21:33:16.368Z,7.96
2022-10-12T21:35:43.375Z,7.84
2022-10-12T21:38:10.588Z,7.76
2022-10-12T21:40:37.076Z,7.66
2022-10-12T21:43:03.515Z,7.64
2022-10-12T21:45:30.069Z,7.56
2022-10-12T21:47:56.625Z,7.54
2022-10-12T21:50:23.127Z,7.50
2022-10-12T21:52:50.162Z,7.44
2022-10-12T21:55:17.129Z,7.38
2022-10-12T21:57:43.841Z,7.36
